Time;durP1;ratioP1;P1;durP2;ratioP2;P2;SDS_P1;SDS_P2;PMS_P1;PMS_P2;Temp;Humidity;BMP_temperature;BMP_pressure;BME280_temperature;BME280_humidity;BME280_pressure;Samples;Min_cycle;Max_cycle;Signal;HPM_P1;HPM_P2
2023/01/27 00:00:05;;;;;;;58.03;20.43;;;5.70;99.90;;;;;;5049285;28;20205;-62
2023/01/27 00:02:40;;;;;;;42.43;16.03;;;5.70;99.90;;;;;;5047246;28;20709;-61
2023/01/27 00:05:08;;;;;;;46.00;17.77;;;5.70;99.90;;;;;;5039393;28;20721;-62
2023/01/27 00:07:35;;;;;;;46.90;18.43;;;5.70;99.90;;;;;;5046637;28;20195;-63
2023/01/27 00:10:03;;;;;;;41.97;16.20;;;5.70;99.90;;;;;;5046935;28;20189;-62
2023/01/27 00:15:25;;;;;;;33.17;14.17;;;5.70;99.90;;;;;;5010340;28;20312;-62
2023/01/27 00:17:52;;;;;;;30.37;12.33;;;5.70;99.90;;;;;;5047484;28;20191;-62
2023/01/27 00:24:34;;;;;;;33.43;13.73;;;5.70;99.90;;;;;;5049220;28;20693;-62
2023/01/27 00:26:00;;;;;;;30.10;12.50;;;5.70;99.90;;;;;;5047918;28;20599;-62
2023/01/27 00:28:30;;;;;;;28.77;12.20;;;5.70;99.90;;;;;;5049268;28;20201;-63
2023/01/27 00:30:58;;;;;;;32.73;13.80;;;5.70;99.90;;;;;;5046477;28;20209;-61
2023/01/27 00:33:25;;;;;;;28.93;12.43;;;5.70;99.90;;;;;;5047680;28;20675;-62
2023/01/27 00:36:00;;;;;;;23.30;10.63;;;5.70;99.90;;;;;;5047487;28;20187;-62
2023/01/27 00:38:28;;;;;;;31.10;12.20;;;5.70;99.90;;;;;;5050697;28;20194;-62
2023/01/27 00:43:41;;;;;;;34.77;13.47;;;5.80;99.90;;;;;;5043809;28;20288;-62
2023/01/27 00:46:09;;;;;;;26.87;11.17;;;5.80;99.90;;;;;;5049027;28;20647;-62
2023/01/27 00:48:36;;;;;;;23.37;10.53;;;5.80;99.90;;;;;;5044129;28;20194;-61
2023/01/27 00:51:03;;;;;;;21.60;9.60;;;5.80;99.90;;;;;;5047615;28;20194;-61
2023/01/27 00:53:31;;;;;;;19.17;9.07;;;5.80;99.90;;;;;;5049660;28;20676;-62
2023/01/27 00:55:59;;;;;;;15.60;7.80;;;5.80;99.90;;;;;;5046739;28;20314;-62
2023/01/27 00:58:26;;;;;;;32.20;14.73;;;5.70;99.90;;;;;;5048173;28;20204;-62
2023/01/27 01:00:55;;;;;;;52.77;20.87;;;5.70;99.90;;;;;;5046625;28;20225;-62
2023/01/27 01:03:24;;;;;;;57.70;23.10;;;5.70;99.90;;;;;;5048202;28;20290;-62
2023/01/27 01:05:52;;;;;;;60.93;24.93;;;5.60;99.90;;;;;;5047103;28;20199;-62
2023/01/27 01:08:19;;;;;;;59.83;24.20;;;5.60;99.90;;;;;;5044776;28;20198;-61
2023/01/27 01:10:46;;;;;;;50.53;21.30;;;5.50;99.90;;;;;;5043565;28;20198;-61
2023/01/27 01:13:13;;;;;;;68.40;27.10;;;5.40;99.90;;;;;;5047676;28;20200;-62
2023/01/27 01:15:41;;;;;;;61.07;26.23;;;4.50;99.90;;;;;;5049443;28;20212;-63
2023/01/27 01:18:11;;;;;;;63.40;24.47;;;5.40;99.90;;;;;;5045012;28;20201;-63
2023/01/27 01:20:40;;;;;;;58.37;22.97;;;5.40;99.90;;;;;;5051164;28;20210;-63
2023/01/27 01:23:07;;;;;;;49.90;20.17;;;5.40;99.90;;;;;;5046225;28;20261;-62
2023/01/27 01:25:35;;;;;;;43.77;17.87;;;5.40;99.90;;;;;;5043920;28;20224;-61
2023/01/27 01:28:04;;;;;;;39.53;16.13;;;5.40;99.90;;;;;;5046681;28;20193;-61
2023/01/27 01:30:33;;;;;;;33.07;15.10;;;5.40;99.90;;;;;;5047325;28;20182;-61
2023/01/27 01:33:00;;;;;;;43.20;17.13;;;5.40;99.90;;;;;;5048231;28;20204;-62
2023/01/27 01:35:29;;;;;;;41.00;17.53;;;5.40;99.90;;;;;;5045205;28;20201;-62
2023/01/27 01:37:56;;;;;;;45.50;19.37;;;5.40;99.90;;;;;;5045266;28;20196;-63
2023/01/27 01:40:24;;;;;;;38.03;15.97;;;5.40;99.90;;;;;;5048172;28;20214;-62
2023/01/27 01:42:57;;;;;;;46.57;19.17;;;5.40;99.90;;;;;;5045400;28;20538;-62
2023/01/27 01:45:53;;;;;;;32.37;14.40;;;5.40;99.90;;;;;;5046135;28;20305;-61
2023/01/27 01:48:32;;;;;;;36.73;16.10;;;5.50;99.90;;;;;;4985887;28;20678;-63
2023/01/27 01:51:04;;;;;;;31.63;13.47;;;5.60;99.90;;;;;;5045781;28;20217;-61
2023/01/27 01:53:36;;;;;;;27.73;11.63;;;5.50;99.90;;;;;;5046014;28;20220;-62
2023/01/27 01:56:12;;;;;;;25.00;11.50;;;5.50;99.90;;;;;;5044541;28;20277;-61
2023/01/27 01:58:39;;;;;;;23.53;11.17;;;5.60;99.90;;;;;;5042027;28;20216;-62
2023/01/27 02:01:07;;;;;;;34.73;14.33;;;5.60;99.90;;;;;;5046133;28;20202;-62
2023/01/27 02:03:39;;;;;;;33.57;14.97;;;5.60;99.90;;;;;;5046428;28;20202;-63
2023/01/27 02:06:09;;;;;;;35.47;14.87;;;5.60;99.90;;;;;;5044795;28;20731;-62
2023/01/27 02:08:39;;;;;;;42.50;18.63;;;5.60;99.90;;;;;;5046147;28;20200;-62
2023/01/27 02:11:07;;;;;;;46.37;18.80;;;5.60;99.90;;;;;;5041279;28;20223;-63
2023/01/27 02:13:34;;;;;;;37.83;17.03;;;5.60;99.90;;;;;;5047138;28;20198;-63
2023/01/27 02:16:03;;;;;;;36.33;16.00;;;5.60;99.90;;;;;;5044505;28;20270;-62
2023/01/27 02:18:30;;;;;;;29.77;13.93;;;5.60;99.90;;;;;;5045277;28;20226;-62
2023/01/27 02:20:58;;;;;;;29.67;13.27;;;5.60;99.90;;;;;;5043364;28;20233;-62
2023/01/27 02:23:39;;;;;;;25.20;11.63;;;5.60;99.90;;;;;;5047747;28;20197;-63
2023/01/27 02:26:13;;;;;;;25.43;11.73;;;5.60;99.90;;;;;;5045154;28;20287;-63
2023/01/27 02:28:40;;;;;;;26.20;11.63;;;5.60;99.90;;;;;;5044307;28;20206;-62
2023/01/27 02:31:08;;;;;;;25.57;11.00;;;5.60;99.90;;;;;;5046611;28;20195;-62
2023/01/27 02:33:35;;;;;;;20.53;9.93;;;5.60;99.90;;;;;;5046271;28;20209;-62
2023/01/27 02:36:07;;;;;;;25.00;11.40;;;5.70;99.90;;;;;;5047409;28;20210;-62
2023/01/27 02:38:37;;;;;;;27.03;12.30;;;5.70;99.90;;;;;;5044877;28;20290;-62
2023/01/27 02:41:09;;;;;;;21.00;10.10;;;5.70;99.90;;;;;;5043292;28;20221;-62
2023/01/27 02:43:37;;;;;;;21.37;10.80;;;5.70;99.90;;;;;;5046540;28;20254;-62
2023/01/27 02:46:04;;;;;;;22.00;10.63;;;5.70;99.90;;;;;;5047690;28;20283;-62
2023/01/27 02:48:31;;;;;;;21.00;9.90;;;5.70;99.90;;;;;;5044580;28;20198;-62
2023/01/27 02:50:59;;;;;;;16.10;8.57;;;5.70;99.90;;;;;;5044830;28;20195;-63
2023/01/27 02:53:28;;;;;;;17.87;9.17;;;5.80;99.90;;;;;;5045631;28;20772;-63
2023/01/27 02:55:56;;;;;;;16.17;7.67;;;5.90;99.90;;;;;;5041858;28;20613;-62
2023/01/27 02:58:24;;;;;;;21.97;9.67;;;5.70;99.90;;;;;;5044624;28;20733;-63
2023/01/27 03:00:55;;;;;;;20.67;9.57;;;5.70;99.90;;;;;;5043632;28;20276;-62
2023/01/27 03:03:23;;;;;;;20.77;10.20;;;5.80;99.90;;;;;;5044049;28;20202;-62
2023/01/27 03:05:50;;;;;;;19.23;9.00;;;5.80;99.90;;;;;;5043973;28;20686;-62
2023/01/27 03:08:18;;;;;;;25.10;10.30;;;5.80;99.90;;;;;;5043607;28;20194;-62
2023/01/27 03:10:49;;;;;;;20.70;10.40;;;5.80;99.90;;;;;;5042652;28;20191;-62
2023/01/27 03:13:17;;;;;;;24.73;11.27;;;5.90;99.90;;;;;;5045169;28;20654;-62
2023/01/27 03:18:30;;;;;;;19.20;9.37;;;5.90;99.90;;;;;;5043993;28;20202;-62
2023/01/27 03:21:01;;;;;;;17.10;8.40;;;5.90;99.90;;;;;;5045150;28;20209;-62
2023/01/27 03:23:33;;;;;;;21.13;9.20;;;5.90;99.90;;;;;;5045045;28;20198;-62
2023/01/27 03:26:02;;;;;;;12.37;7.03;;;5.90;99.90;;;;;;5046018;28;20211;-63
2023/01/27 03:28:29;;;;;;;15.10;7.30;;;5.90;99.90;;;;;;5045228;28;20222;-62
2023/01/27 03:31:18;;;;;;;13.30;6.40;;;5.90;99.90;;;;;;5045713;28;20227;-61
2023/01/27 03:33:52;;;;;;;12.63;6.77;;;5.90;99.90;;;;;;5046699;28;20205;-62
2023/01/27 03:47:45;;;;;;;16.13;7.70;;;5.90;99.90;;;;;;5077752;28;20221;-62
2023/01/27 03:50:18;;;;;;;22.80;10.90;;;5.90;99.90;;;;;;5048909;28;20200;-62
2023/01/27 03:53:01;;;;;;;19.23;9.07;;;5.90;99.90;;;;;;5048599;28;20194;-62
2023/01/27 03:55:29;;;;;;;20.57;8.20;;;5.90;99.90;;;;;;5045721;28;20197;-62
2023/01/27 03:57:56;;;;;;;15.33;7.70;;;5.90;99.90;;;;;;5045359;28;20196;-61
2023/01/27 04:00:24;;;;;;;14.53;7.43;;;5.90;99.90;;;;;;5047071;28;20293;-61
2023/01/27 04:08:21;;;;;;;13.27;6.77;;;5.90;99.90;;;;;;5047702;28;21108;-61
2023/01/27 04:11:53;;;;;;;16.13;8.03;;;5.80;99.90;;;;;;5047028;28;20201;-63
2023/01/27 04:13:34;;;;;;;15.83;7.67;;;5.80;99.90;;;;;;5048369;28;20201;-62
2023/01/27 04:16:02;;;;;;;14.77;7.67;;;5.80;99.90;;;;;;5046607;28;20209;-61
2023/01/27 04:18:30;;;;;;;14.87;7.70;;;5.90;99.90;;;;;;5048560;28;20209;-62
2023/01/27 04:20:57;;;;;;;16.40;7.60;;;5.90;99.90;;;;;;5045148;28;20264;-63
2023/01/27 04:23:24;;;;;;;13.63;7.20;;;5.90;99.90;;;;;;5048880;28;20190;-62
2023/01/27 04:25:55;;;;;;;12.03;6.57;;;5.90;99.90;;;;;;5045806;28;20209;-62
2023/01/27 04:28:22;;;;;;;6.43;4.20;;;5.90;99.90;;;;;;5047380;28;20190;-62
2023/01/27 04:30:49;;;;;;;3.83;2.27;;;5.90;99.90;;;;;;5046002;28;20237;-63
2023/01/27 04:33:17;;;;;;;1.97;1.50;;;5.90;99.90;;;;;;5048415;28;20206;-63
2023/01/27 04:35:46;;;;;;;1.03;1.00;;;5.90;99.90;;;;;;5047431;28;20571;-63
2023/01/27 04:38:14;;;;;;;2.17;1.30;;;5.90;99.90;;;;;;5046471;28;20192;-63
2023/01/27 04:40:42;;;;;;;2.27;1.30;;;5.90;99.90;;;;;;5048334;28;20216;-62
2023/01/27 04:43:09;;;;;;;2.07;1.20;;;5.90;99.90;;;;;;5048955;28;20234;-62
2023/01/27 04:45:36;;;;;;;1.90;1.20;;;5.90;99.90;;;;;;5048644;28;20564;-62
2023/01/27 04:48:05;;;;;;;1.67;1.40;;;5.90;99.90;;;;;;5046609;28;20409;-62
2023/01/27 04:50:32;;;;;;;1.20;1.10;;;5.90;99.90;;;;;;5047659;28;20654;-62
2023/01/27 04:53:01;;;;;;;3.10;1.87;;;5.90;99.90;;;;;;5046308;28;21028;-62
2023/01/27 04:55:28;;;;;;;1.90;1.10;;;5.90;99.90;;;;;;5047900;28;20194;-61
2023/01/27 04:57:55;;;;;;;1.20;1.20;;;5.90;99.90;;;;;;5046958;28;20190;-62
2023/01/27 05:00:22;;;;;;;2.03;1.30;;;5.90;99.90;;;;;;5047616;28;20569;-61
2023/01/27 05:02:50;;;;;;;3.10;1.47;;;5.90;99.90;;;;;;5047700;28;20199;-61
2023/01/27 05:05:17;;;;;;;1.50;1.40;;;5.90;99.90;;;;;;5046993;28;20199;-61
2023/01/27 05:07:44;;;;;;;2.67;1.20;;;5.90;99.90;;;;;;5049647;28;20277;-61
2023/01/27 05:10:13;;;;;;;1.43;1.27;;;5.90;99.90;;;;;;5045401;28;20199;-61
2023/01/27 05:12:40;;;;;;;2.03;1.70;;;5.90;99.90;;;;;;5047799;28;20669;-62
2023/01/27 05:15:08;;;;;;;1.47;1.30;;;5.90;99.90;;;;;;5046252;28;20210;-62
2023/01/27 05:17:35;;;;;;;1.87;1.27;;;5.90;99.90;;;;;;5046476;28;20665;-62
2023/01/27 05:20:03;;;;;;;3.30;1.70;;;5.90;99.90;;;;;;5044755;28;20191;-62
2023/01/27 05:22:30;;;;;;;2.00;1.33;;;5.80;99.90;;;;;;5046210;28;20629;-63
2023/01/27 05:24:57;;;;;;;1.93;1.50;;;5.80;99.90;;;;;;5045856;28;20221;-62
2023/01/27 05:27:26;;;;;;;2.40;1.50;;;5.80;99.90;;;;;;5046191;28;20209;-63
2023/01/27 05:29:53;;;;;;;2.40;1.73;;;5.80;99.90;;;;;;5045684;28;20205;-62
2023/01/27 05:32:20;;;;;;;2.13;1.77;;;5.80;99.90;;;;;;5047211;28;20662;-62
2023/01/27 05:34:47;;;;;;;2.00;1.77;;;5.80;99.90;;;;;;5046702;28;20198;-62
2023/01/27 05:37:14;;;;;;;1.63;1.40;;;5.80;99.90;;;;;;5045301;28;20190;-62
2023/01/27 05:39:41;;;;;;;1.70;1.40;;;5.80;99.90;;;;;;5044283;28;20543;-62
2023/01/27 05:42:08;;;;;;;0.90;0.90;;;5.80;99.90;;;;;;5046787;28;20229;-62
2023/01/27 05:44:37;;;;;;;1.57;1.20;;;5.80;99.90;;;;;;5047022;28;20682;-62
2023/01/27 05:47:04;;;;;;;2.90;1.10;;;5.80;99.90;;;;;;5045289;28;20199;-62
2023/01/27 05:49:31;;;;;;;2.13;1.30;;;5.90;99.90;;;;;;5047222;28;20198;-63
2023/01/27 05:51:58;;;;;;;2.73;1.27;;;5.80;99.90;;;;;;5045909;28;20664;-62
2023/01/27 05:54:25;;;;;;;1.30;1.10;;;5.90;99.90;;;;;;5043692;28;20207;-63
2023/01/27 05:56:52;;;;;;;2.13;1.10;;;5.90;99.90;;;;;;5044101;28;20191;-63
2023/01/27 05:59:19;;;;;;;1.33;0.70;;;5.90;99.90;;;;;;5048160;28;20719;-62
2023/01/27 06:01:48;;;;;;;1.67;0.90;;;5.90;99.90;;;;;;5045115;28;20214;-62
2023/01/27 06:04:15;;;;;;;2.47;0.90;;;5.90;99.90;;;;;;5048128;28;20199;-62
2023/01/27 06:06:42;;;;;;;2.10;0.90;;;5.90;99.90;;;;;;5046536;28;20205;-63
2023/01/27 06:09:10;;;;;;;1.67;0.80;;;5.90;99.90;;;;;;5045498;28;20199;-62
2023/01/27 06:11:37;;;;;;;2.73;0.83;;;5.90;99.90;;;;;;5047067;28;20214;-61
2023/01/27 06:14:04;;;;;;;2.90;1.00;;;5.90;99.90;;;;;;5048710;28;20196;-62
2023/01/27 06:16:31;;;;;;;1.97;0.90;;;5.90;99.90;;;;;;5048228;28;20203;-62
2023/01/27 06:19:00;;;;;;;2.07;0.90;;;5.90;99.90;;;;;;5046337;28;20194;-62
2023/01/27 06:21:27;;;;;;;2.03;0.97;;;5.90;99.90;;;;;;5045376;28;20206;-61
2023/01/27 06:23:57;;;;;;;3.90;1.00;;;5.90;99.90;;;;;;5047328;28;20303;-62
2023/01/27 06:26:24;;;;;;;2.00;0.70;;;5.90;99.90;;;;;;5044708;28;20195;-62
2023/01/27 06:28:51;;;;;;;3.40;0.90;;;5.90;99.90;;;;;;5047039;28;20543;-61
2023/01/27 06:31:20;;;;;;;3.13;0.90;;;5.90;99.90;;;;;;5060140;28;20201;-62
2023/01/27 06:33:48;;;;;;;1.20;0.70;;;5.90;99.90;;;;;;5047300;28;20269;-62
2023/01/27 06:36:18;;;;;;;2.43;0.90;;;5.90;99.90;;;;;;5045436;28;20681;-62
2023/01/27 06:38:46;;;;;;;1.23;0.90;;;5.90;99.90;;;;;;5042867;28;20214;-63
2023/01/27 06:41:14;;;;;;;1.40;0.70;;;5.90;99.90;;;;;;5043013;28;20222;-63
2023/01/27 06:43:41;;;;;;;3.30;1.07;;;5.80;99.90;;;;;;5046723;28;20205;-62
2023/01/27 06:46:08;;;;;;;0.97;0.60;;;5.90;99.90;;;;;;5044866;28;20203;-62
2023/01/27 06:48:36;;;;;;;3.13;1.13;;;5.90;99.90;;;;;;5045044;28;20199;-62
2023/01/27 06:51:03;;;;;;;1.57;1.17;;;5.80;99.90;;;;;;5045595;28;20624;-62
2023/01/27 06:53:33;;;;;;;3.77;1.17;;;5.90;99.90;;;;;;5045969;28;20204;-62
2023/01/27 06:56:01;;;;;;;0.73;0.73;;;5.90;99.90;;;;;;5045981;28;20191;-62
2023/01/27 06:58:29;;;;;;;2.03;0.73;;;5.90;99.90;;;;;;5046740;28;20275;-62
2023/01/27 07:00:57;;;;;;;1.47;0.63;;;5.90;99.90;;;;;;5043574;28;20688;-62
2023/01/27 07:03:24;;;;;;;1.53;0.50;;;5.90;99.90;;;;;;5046981;28;20192;-63
2023/01/27 07:05:52;;;;;;;2.60;0.70;;;5.90;99.90;;;;;;5043048;28;20720;-62
2023/01/27 07:08:19;;;;;;;1.70;0.87;;;5.90;99.90;;;;;;5062118;28;20199;-61
2023/01/27 07:10:50;;;;;;;1.83;0.73;;;5.90;99.90;;;;;;5042256;28;20196;-62
2023/01/27 07:13:18;;;;;;;2.63;0.50;;;5.90;99.90;;;;;;5040611;28;20204;-62
2023/01/27 07:15:45;;;;;;;2.10;0.70;;;5.90;99.90;;;;;;5046330;28;20269;-62
2023/01/27 07:18:13;;;;;;;0.80;0.53;;;5.90;99.90;;;;;;5041821;28;20199;-61
2023/01/27 07:20:41;;;;;;;3.87;0.83;;;5.90;99.90;;;;;;5044735;28;20232;-63
2023/01/27 07:23:10;;;;;;;1.60;0.50;;;5.90;99.90;;;;;;5040113;28;20196;-62
2023/01/27 07:25:37;;;;;;;1.30;0.40;;;5.90;99.90;;;;;;5041951;28;20239;-62
2023/01/27 07:28:06;;;;;;;1.57;0.70;;;5.80;99.90;;;;;;5043688;28;20207;-61
2023/01/27 07:30:34;;;;;;;1.00;0.67;;;5.90;99.90;;;;;;5043437;28;20192;-62
2023/01/27 07:33:04;;;;;;;1.40;0.90;;;5.90;99.90;;;;;;5041588;28;20221;-62
2023/01/27 07:35:32;;;;;;;0.60;0.60;;;5.90;99.90;;;;;;5043568;28;20198;-61
2023/01/27 07:37:59;;;;;;;1.23;0.70;;;5.90;99.90;;;;;;5043980;28;20286;-61
2023/01/27 07:40:26;;;;;;;4.47;0.80;;;5.90;99.90;;;;;;5043240;28;20568;-62
2023/01/27 07:42:53;;;;;;;0.40;0.40;;;5.90;99.90;;;;;;5042839;28;20252;-62
2023/01/27 07:45:22;;;;;;;1.50;0.63;;;5.90;99.90;;;;;;5041984;28;20209;-61
2023/01/27 07:47:49;;;;;;;0.97;0.63;;;5.80;99.90;;;;;;5043577;28;20189;-61
2023/01/27 07:50:17;;;;;;;3.30;0.70;;;5.80;99.90;;;;;;5042402;28;20200;-62
2023/01/27 07:52:44;;;;;;;0.93;0.80;;;5.80;99.90;;;;;;5043183;28;20183;-62
2023/01/27 07:55:11;;;;;;;1.50;0.73;;;5.80;99.90;;;;;;5040654;28;20205;-62
2023/01/27 07:57:38;;;;;;;2.60;0.93;;;5.80;99.90;;;;;;5042176;28;20216;-62
2023/01/27 08:00:06;;;;;;;2.03;0.80;;;5.80;99.90;;;;;;5042498;28;20206;-62
2023/01/27 08:02:40;;;;;;;0.83;0.50;;;5.80;99.90;;;;;;5042330;28;20287;-61
2023/01/27 08:05:08;;;;;;;1.57;0.80;;;5.80;99.90;;;;;;5044798;28;20221;-61
2023/01/27 08:07:36;;;;;;;5.50;1.00;;;5.80;99.90;;;;;;5042284;28;20207;-62
2023/01/27 08:10:03;;;;;;;1.00;1.00;;;5.80;99.90;;;;;;5041880;28;20225;-62
2023/01/27 08:12:30;;;;;;;6.77;1.53;;;5.90;99.90;;;;;;5044530;28;20183;-60
2023/01/27 08:14:57;;;;;;;4.50;1.40;;;5.90;99.90;;;;;;5042259;28;20205;-62
2023/01/27 08:17:24;;;;;;;2.80;1.10;;;5.90;99.90;;;;;;5042879;28;20200;-61
2023/01/27 08:19:53;;;;;;;3.50;1.00;;;6.00;99.90;;;;;;5045425;28;20277;-61
2023/01/27 08:22:20;;;;;;;0.80;0.80;;;6.00;99.90;;;;;;5045090;28;20220;-62
2023/01/27 08:24:48;;;;;;;1.77;0.80;;;6.00;99.90;;;;;;5047509;28;20249;-62
2023/01/27 08:27:15;;;;;;;1.30;0.93;;;6.00;99.90;;;;;;5048195;28;20198;-62
2023/01/27 08:29:42;;;;;;;1.30;0.80;;;6.00;99.90;;;;;;5047834;28;20244;-61
2023/01/27 08:32:10;;;;;;;2.50;0.90;;;6.10;99.90;;;;;;5046211;28;20195;-62
2023/01/27 08:34:38;;;;;;;1.10;0.60;;;6.10;99.90;;;;;;5047093;28;20306;-62
2023/01/27 08:37:06;;;;;;;2.27;0.60;;;6.10;99.90;;;;;;5044774;28;20599;-61
2023/01/27 08:39:34;;;;;;;3.70;1.00;;;6.10;99.90;;;;;;5047726;28;20215;-62
2023/01/27 08:42:01;;;;;;;1.77;0.67;;;6.00;99.90;;;;;;5045371;28;20931;-63
2023/01/27 08:44:29;;;;;;;1.17;0.70;;;6.00;99.90;;;;;;5048018;28;20280;-62
2023/01/27 08:46:56;;;;;;;0.87;0.60;;;6.00;99.90;;;;;;5047297;28;20286;-62
2023/01/27 08:49:24;;;;;;;3.57;0.80;;;5.90;99.90;;;;;;5046119;28;20196;-62
2023/01/27 08:51:51;;;;;;;1.60;0.70;;;5.90;99.90;;;;;;5048105;28;20203;-62
2023/01/27 08:54:21;;;;;;;0.60;0.60;;;5.90;99.90;;;;;;5046600;28;20195;-62
2023/01/27 08:56:48;;;;;;;1.03;0.70;;;5.90;99.90;;;;;;5047099;28;20228;-61
2023/01/27 08:59:16;;;;;;;1.00;0.50;;;5.80;99.90;;;;;;5047405;28;20199;-62
2023/01/27 09:01:43;;;;;;;0.40;0.40;;;5.80;99.90;;;;;;5047854;28;20210;-61
2023/01/27 09:04:10;;;;;;;0.67;0.47;;;5.90;99.90;;;;;;5048986;28;20244;-62
2023/01/27 09:06:37;;;;;;;1.30;0.53;;;5.90;99.90;;;;;;5046012;28;20229;-62
2023/01/27 09:09:10;;;;;;;0.50;0.50;;;5.90;99.90;;;;;;5046281;28;20686;-62
2023/01/27 09:11:41;;;;;;;1.13;0.50;;;6.00;99.90;;;;;;5044870;28;20667;-63
2023/01/27 09:14:09;;;;;;;2.10;0.67;;;6.00;99.90;;;;;;5046237;28;20242;-63
2023/01/27 09:16:36;;;;;;;2.53;0.60;;;6.10;99.90;;;;;;5047395;28;20203;-62
2023/01/27 09:19:03;;;;;;;1.43;0.63;;;6.30;99.90;;;;;;5043636;28;20199;-62
2023/01/27 09:21:31;;;;;;;1.73;0.77;;;6.40;99.90;;;;;;5048049;28;20225;-61
2023/01/27 09:23:58;;;;;;;2.20;0.90;;;6.40;99.90;;;;;;5045509;28;21392;-62
2023/01/27 09:26:26;;;;;;;1.40;0.80;;;6.40;99.90;;;;;;5044058;28;20240;-62
2023/01/27 09:28:54;;;;;;;1.37;0.63;;;6.40;99.90;;;;;;5046993;28;20202;-62
2023/01/27 09:31:21;;;;;;;1.33;0.50;;;6.40;99.90;;;;;;5044001;28;20212;-61
2023/01/27 09:33:49;;;;;;;4.03;1.00;;;6.30;99.90;;;;;;5042641;28;20210;-62
2023/01/27 09:36:20;;;;;;;3.17;0.60;;;6.40;99.90;;;;;;5045444;28;20586;-62
2023/01/27 09:38:52;;;;;;;1.73;0.63;;;6.30;99.90;;;;;;5045959;28;20188;-62
2023/01/27 09:41:48;;;;;;;1.63;0.60;;;6.30;99.90;;;;;;5049283;28;20185;-61
2023/01/27 09:44:43;;;;;;;1.23;0.70;;;6.30;99.90;;;;;;5058584;28;20204;-62
2023/01/27 09:47:23;;;;;;;1.57;0.50;;;6.30;99.90;;;;;;5043202;28;20202;-63
2023/01/27 09:50:08;;;;;;;0.40;0.40;;;6.30;99.90;;;;;;5047468;28;20203;-62
2023/01/27 09:53:03;;;;;;;2.73;0.53;;;6.50;99.90;;;;;;5046123;28;20629;-62
2023/01/27 09:55:41;;;;;;;0.60;0.60;;;6.60;99.90;;;;;;5048465;28;20215;-62
2023/01/27 09:58:19;;;;;;;1.80;0.50;;;6.60;99.90;;;;;;5043925;28;20195;-61
2023/01/27 10:00:57;;;;;;;1.23;0.57;;;6.60;99.90;;;;;;5073149;28;20290;-61
2023/01/27 10:03:38;;;;;;;0.50;0.40;;;6.80;99.90;;;;;;5044188;28;20398;-61
2023/01/27 10:06:34;;;;;;;1.07;0.90;;;6.90;99.90;;;;;;5043355;28;20206;-63
2023/01/27 10:09:27;;;;;;;1.00;0.90;;;7.00;99.90;;;;;;5042465;28;20216;-62
2023/01/27 10:12:03;;;;;;;3.67;1.10;;;7.30;99.90;;;;;;5042886;28;20192;-61
2023/01/27 10:14:39;;;;;;;1.10;0.67;;;7.30;99.90;;;;;;5047210;28;20754;-62
2023/01/27 10:17:23;;;;;;;1.30;0.50;;;7.40;99.90;;;;;;5045275;28;20874;-60
2023/01/27 10:20:02;;;;;;;1.63;0.63;;;7.60;99.90;;;;;;5044914;28;20192;-61
2023/01/27 10:22:40;;;;;;;0.97;0.70;;;7.00;99.30;;;;;;5042982;28;20216;-61
2023/01/27 10:25:21;;;;;;;2.87;0.67;;;7.70;99.80;;;;;;5074015;28;20212;-61
2023/01/27 10:27:52;;;;;;;3.17;0.70;;;8.20;99.90;;;;;;5073630;28;20201;-61
2023/01/27 10:30:27;;;;;;;2.30;0.70;;;8.70;98.70;;;;;;5044362;28;21433;-62
2023/01/27 10:33:04;;;;;;;1.23;0.70;;;9.00;98.30;;;;;;5043906;28;20249;-62
2023/01/27 10:35:38;;;;;;;1.33;0.73;;;9.60;97.50;;;;;;5042261;28;20584;-62
2023/01/27 10:38:12;;;;;;;2.23;0.83;;;9.70;96.10;;;;;;5043067;28;20667;-63
2023/01/27 10:40:48;;;;;;;0.57;0.57;;;9.50;95.70;;;;;;5044519;28;20204;-62
2023/01/27 10:43:21;;;;;;;2.40;0.53;;;9.40;95.80;;;;;;5043179;28;20315;-62
2023/01/27 10:45:55;;;;;;;3.10;0.80;;;9.70;96.00;;;;;;5043499;28;20233;-61
2023/01/27 10:48:45;;;;;;;2.57;0.70;;;9.80;95.60;;;;;;5042924;28;20190;-61
2023/01/27 10:51:18;;;;;;;1.37;0.83;;;9.70;95.20;;;;;;5045617;28;20198;-62
2023/01/27 10:53:56;;;;;;;0.77;0.63;;;9.40;95.10;;;;;;5044787;28;20826;-62
2023/01/27 10:56:31;;;;;;;1.23;0.60;;;9.00;94.70;;;;;;5042362;28;20224;-62
2023/01/27 10:59:06;;;;;;;1.50;0.60;;;8.80;95.20;;;;;;5043214;28;20193;-62
2023/01/27 11:01:37;;;;;;;1.67;0.80;;;8.70;95.30;;;;;;5045341;28;20185;-61
2023/01/27 11:04:11;;;;;;;1.07;0.77;;;8.60;95.30;;;;;;5043046;28;20193;-61
2023/01/27 11:06:41;;;;;;;2.00;0.70;;;8.70;95.40;;;;;;5042834;28;20648;-61
2023/01/27 11:09:23;;;;;;;2.13;0.70;;;8.70;95.00;;;;;;5041032;28;20726;-61
2023/01/27 11:11:52;;;;;;;2.13;0.77;;;8.40;94.90;;;;;;5041853;28;20202;-62
2023/01/27 11:14:27;;;;;;;1.57;0.70;;;8.30;94.70;;;;;;5039535;28;20553;-61
2023/01/27 11:17:01;;;;;;;1.93;0.90;;;8.20;94.60;;;;;;5041519;28;20567;-61
2023/01/27 11:19:40;;;;;;;1.13;0.80;;;8.00;94.80;;;;;;5041867;28;20201;-62
2023/01/27 11:22:18;;;;;;;0.90;0.63;;;8.00;95.00;;;;;;5043224;28;20212;-61
2023/01/27 11:24:47;;;;;;;1.73;1.00;;;8.10;95.10;;;;;;5044075;28;20543;-62
2023/01/27 11:27:26;;;;;;;1.33;0.60;;;8.10;95.00;;;;;;5041440;28;20193;-61
2023/01/27 11:29:59;;;;;;;2.47;0.80;;;8.40;95.40;;;;;;5042230;28;20190;-61
2023/01/27 11:32:36;;;;;;;1.07;0.50;;;8.60;95.00;;;;;;5041001;28;20190;-62
2023/01/27 11:35:08;;;;;;;1.90;0.57;;;8.50;94.60;;;;;;5044054;28;20190;-63
2023/01/27 11:37:38;;;;;;;0.80;0.60;;;8.40;94.30;;;;;;5044556;28;20625;-62
2023/01/27 11:40:15;;;;;;;1.87;0.60;;;8.40;94.60;;;;;;5043390;28;20201;-61
2023/01/27 11:42:43;;;;;;;2.57;0.70;;;8.40;94.40;;;;;;5042406;28;20233;-61
2023/01/27 11:45:15;;;;;;;0.40;0.40;;;8.20;94.10;;;;;;5042031;28;20206;-62
2023/01/27 11:47:44;;;;;;;0.83;0.60;;;8.00;93.80;;;;;;5045331;28;20196;-62
2023/01/27 11:50:16;;;;;;;1.20;0.60;;;7.90;93.90;;;;;;5044207;28;20208;-61
2023/01/27 11:52:47;;;;;;;0.77;0.50;;;7.90;93.90;;;;;;5046040;28;20263;-61
2023/01/27 11:55:18;;;;;;;0.87;0.63;;;7.90;93.70;;;;;;5049825;28;20194;-62
2023/01/27 11:57:51;;;;;;;4.60;0.87;;;7.90;93.80;;;;;;5050393;28;20199;-62
2023/01/27 12:00:24;;;;;;;0.50;0.50;;;7.80;93.70;;;;;;5044234;28;20198;-61
2023/01/27 12:02:59;;;;;;;2.03;0.60;;;7.70;93.80;;;;;;5047065;28;20575;-62
2023/01/27 12:05:33;;;;;;;3.87;0.70;;;7.60;93.80;;;;;;5046459;28;20195;-62
2023/01/27 12:08:02;;;;;;;0.60;0.60;;;7.60;93.90;;;;;;5047754;28;20182;-61
2023/01/27 12:10:32;;;;;;;0.40;0.40;;;7.50;93.50;;;;;;5045197;28;20276;-62
2023/01/27 12:13:02;;;;;;;2.80;0.60;;;7.40;93.50;;;;;;5043034;28;20546;-61
2023/01/27 12:15:31;;;;;;;2.00;0.50;;;7.30;93.60;;;;;;5045990;28;20198;-61
2023/01/27 12:18:02;;;;;;;1.53;0.50;;;7.20;93.50;;;;;;5045166;28;20274;-61
2023/01/27 12:20:37;;;;;;;1.37;0.57;;;7.10;93.50;;;;;;5045129;28;20229;-62
2023/01/27 12:23:16;;;;;;;2.50;0.50;;;7.10;93.40;;;;;;5045874;28;20233;-62
2023/01/27 12:25:46;;;;;;;1.10;0.40;;;7.10;93.20;;;;;;5045329;28;20185;-61
2023/01/27 12:28:29;;;;;;;3.70;0.70;;;7.20;93.20;;;;;;5049623;28;20251;-61
2023/01/27 12:31:05;;;;;;;0.97;0.47;;;7.10;92.70;;;;;;5048084;28;20188;-60
2023/01/27 12:33:34;;;;;;;4.33;0.60;;;7.20;92.80;;;;;;5047508;28;20200;-61
2023/01/27 12:36:12;;;;;;;1.40;0.50;;;7.30;92.80;;;;;;5049191;28;20208;-62
2023/01/27 12:38:45;;;;;;;0.70;0.43;;;7.30;92.80;;;;;;5046770;28;20221;-61
2023/01/27 12:41:19;;;;;;;0.93;0.40;;;7.30;92.60;;;;;;5046502;28;20694;-62
2023/01/27 12:43:54;;;;;;;1.50;0.70;;;7.20;92.30;;;;;;5048502;28;20207;-60
2023/01/27 12:46:23;;;;;;;1.87;0.50;;;7.10;92.30;;;;;;5047182;28;20196;-62
2023/01/27 12:48:52;;;;;;;2.17;0.53;;;7.10;92.30;;;;;;5047932;28;20197;-62
2023/01/27 12:51:22;;;;;;;0.63;0.40;;;7.10;92.30;;;;;;5046776;28;20198;-61
2023/01/27 12:54:11;;;;;;;1.03;0.50;;;7.00;92.50;;;;;;5064147;28;20200;-62
2023/01/27 12:56:38;;;;;;;0.67;0.50;;;7.00;92.60;;;;;;5046696;28;20282;-62
2023/01/27 12:59:12;;;;;;;0.83;0.60;;;6.90;92.10;;;;;;5050367;28;20205;-61
2023/01/27 13:01:40;;;;;;;5.17;0.63;;;6.90;91.90;;;;;;5047808;28;20204;-61
2023/01/27 13:04:15;;;;;;;2.13;0.50;;;7.00;92.10;;;;;;5047485;28;20218;-62
2023/01/27 13:06:49;;;;;;;0.53;0.50;;;7.00;92.10;;;;;;5048020;28;20188;-61
2023/01/27 13:09:26;;;;;;;1.17;0.67;;;7.00;92.10;;;;;;5048004;28;20211;-63
2023/01/27 13:11:55;;;;;;;2.23;0.50;;;7.00;92.20;;;;;;5047650;28;20200;-62
2023/01/27 13:14:23;;;;;;;2.33;0.50;;;6.90;92.30;;;;;;5047558;28;20282;-61
2023/01/27 13:16:54;;;;;;;1.97;0.43;;;6.90;92.40;;;;;;5047644;28;20207;-61
2023/01/27 13:19:32;;;;;;;1.03;0.40;;;6.80;92.60;;;;;;5047096;28;20217;-62
2023/01/27 13:22:02;;;;;;;1.93;0.50;;;6.80;92.70;;;;;;5048844;28;20208;-61
2023/01/27 13:24:36;;;;;;;1.00;0.60;;;6.80;92.60;;;;;;5044701;28;20220;-61
2023/01/27 13:27:10;;;;;;;1.00;0.50;;;6.80;92.40;;;;;;5062597;28;20224;-62
2023/01/27 13:29:40;;;;;;;2.10;0.80;;;6.70;92.30;;;;;;5050873;28;20204;-63
2023/01/27 13:32:16;;;;;;;1.90;0.60;;;6.80;92.20;;;;;;5045503;28;20200;-62
2023/01/27 13:34:48;;;;;;;1.37;0.70;;;6.80;92.20;;;;;;5048168;28;20183;-62
2023/01/27 13:37:22;;;;;;;1.57;0.80;;;7.00;92.30;;;;;;5046841;28;20668;-62